sensor_id;sensor_type;location;lat;lon;timestamp;temperature;humidity
15099;DHT22;33900;53.640;9.942;2024-02-21T00:00:15;11.80;94.60
15099;DHT22;33900;53.640;9.942;2024-02-21T00:02:41;11.80;94.60
15099;DHT22;33900;53.640;9.942;2024-02-21T00:05:07;11.80;94.60
15099;DHT22;33900;53.640;9.942;2024-02-21T00:07:32;11.80;94.60
15099;DHT22;33900;53.640;9.942;2024-02-21T00:09:58;11.80;94.70
15099;DHT22;33900;53.640;9.942;2024-02-21T00:12:23;11.70;94.60
15099;DHT22;33900;53.640;9.942;2024-02-21T00:14:49;11.70;94.60
15099;DHT22;33900;53.640;9.942;2024-02-21T00:17:14;11.70;94.70
15099;DHT22;33900;53.640;9.942;2024-02-21T00:19:40;11.70;94.70
15099;DHT22;33900;53.640;9.942;2024-02-21T00:22:05;11.60;94.70
15099;DHT22;33900;53.640;9.942;2024-02-21T00:24:31;11.60;94.80
15099;DHT22;33900;53.640;9.942;2024-02-21T00:26:56;11.60;94.70
15099;DHT22;33900;53.640;9.942;2024-02-21T00:29:22;11.60;94.80
15099;DHT22;33900;53.640;9.942;2024-02-21T00:31:48;11.60;94.80
15099;DHT22;33900;53.640;9.942;2024-02-21T00:34:14;11.60;94.80
15099;DHT22;33900;53.640;9.942;2024-02-21T00:36:39;11.60;94.80
15099;DHT22;33900;53.640;9.942;2024-02-21T00:39:06;11.60;94.90
15099;DHT22;33900;53.640;9.942;2024-02-21T00:41:32;11.60;95.00
15099;DHT22;33900;53.640;9.942;2024-02-21T00:43:57;11.50;95.00
15099;DHT22;33900;53.640;9.942;2024-02-21T00:46:23;11.60;95.00
15099;DHT22;33900;53.640;9.942;2024-02-21T00:48:48;11.50;95.00
15099;DHT22;33900;53.640;9.942;2024-02-21T00:51:15;11.60;95.10
15099;DHT22;33900;53.640;9.942;2024-02-21T00:53:41;11.50;95.00
15099;DHT22;33900;53.640;9.942;2024-02-21T00:56:07;11.50;95.10
15099;DHT22;33900;53.640;9.942;2024-02-21T00:58:32;11.50;95.10
15099;DHT22;33900;53.640;9.942;2024-02-21T01:00:58;11.50;95.20
15099;DHT22;33900;53.640;9.942;2024-02-21T01:03:24;11.50;95.20
15099;DHT22;33900;53.640;9.942;2024-02-21T01:05:49;11.50;95.20
15099;DHT22;33900;53.640;9.942;2024-02-21T01:08:14;11.50;95.20
15099;DHT22;33900;53.640;9.942;2024-02-21T01:10:40;11.50;95.20
15099;DHT22;33900;53.640;9.942;2024-02-21T01:13:06;11.50;95.70
15099;DHT22;33900;53.640;9.942;2024-02-21T01:15:32;11.50;95.20
15099;DHT22;33900;53.640;9.942;2024-02-21T01:17:58;11.50;95.30
15099;DHT22;33900;53.640;9.942;2024-02-21T01:20:24;11.50;95.30
15099;DHT22;33900;53.640;9.942;2024-02-21T01:22:49;11.50;95.30
15099;DHT22;33900;53.640;9.942;2024-02-21T01:25:15;11.50;95.40
15099;DHT22;33900;53.640;9.942;2024-02-21T01:27:41;11.50;95.40
15099;DHT22;33900;53.640;9.942;2024-02-21T01:30:07;11.50;95.40
15099;DHT22;33900;53.640;9.942;2024-02-21T01:32:33;11.50;95.40
15099;DHT22;33900;53.640;9.942;2024-02-21T01:34:58;11.40;95.50
15099;DHT22;33900;53.640;9.942;2024-02-21T01:37:24;11.40;95.50
15099;DHT22;33900;53.640;9.942;2024-02-21T01:39:49;11.40;95.60
15099;DHT22;33900;53.640;9.942;2024-02-21T01:42:15;11.40;95.60
15099;DHT22;33900;53.640;9.942;2024-02-21T01:44:41;11.40;95.60
15099;DHT22;33900;53.640;9.942;2024-02-21T01:47:07;11.40;95.60
15099;DHT22;33900;53.640;9.942;2024-02-21T01:49:33;11.40;95.70
15099;DHT22;33900;53.640;9.942;2024-02-21T01:51:59;11.40;95.90
15099;DHT22;33900;53.640;9.942;2024-02-21T01:54:24;11.30;95.90
15099;DHT22;33900;53.640;9.942;2024-02-21T01:56:50;11.30;95.90
15099;DHT22;33900;53.640;9.942;2024-02-21T01:59:18;11.30;95.90
15099;DHT22;33900;53.640;9.942;2024-02-21T02:01:44;11.30;96.00
15099;DHT22;33900;53.640;9.942;2024-02-21T02:04:09;11.30;96.00
15099;DHT22;33900;53.640;9.942;2024-02-21T02:06:35;11.30;96.10
15099;DHT22;33900;53.640;9.942;2024-02-21T02:09:00;11.30;96.10
15099;DHT22;33900;53.640;9.942;2024-02-21T02:11:26;11.30;96.10
15099;DHT22;33900;53.640;9.942;2024-02-21T02:13:52;11.30;96.10
15099;DHT22;33900;53.640;9.942;2024-02-21T02:16:17;11.30;96.10
15099;DHT22;33900;53.640;9.942;2024-02-21T02:18:42;11.30;96.20
15099;DHT22;33900;53.640;9.942;2024-02-21T02:21:10;11.30;96.30
15099;DHT22;33900;53.640;9.942;2024-02-21T02:23:39;11.30;96.30
15099;DHT22;33900;53.640;9.942;2024-02-21T02:26:05;11.30;96.80
15099;DHT22;33900;53.640;9.942;2024-02-21T02:28:32;11.30;96.40
15099;DHT22;33900;53.640;9.942;2024-02-21T02:30:58;11.20;96.40
15099;DHT22;33900;53.640;9.942;2024-02-21T02:33:23;11.20;96.50
15099;DHT22;33900;53.640;9.942;2024-02-21T02:35:49;11.20;96.50
15099;DHT22;33900;53.640;9.942;2024-02-21T02:38:17;11.20;96.50
15099;DHT22;33900;53.640;9.942;2024-02-21T02:40:43;11.30;96.50
15099;DHT22;33900;53.640;9.942;2024-02-21T02:43:09;11.20;96.50
15099;DHT22;33900;53.640;9.942;2024-02-21T02:45:34;11.20;96.50
15099;DHT22;33900;53.640;9.942;2024-02-21T02:48:00;11.20;96.60
15099;DHT22;33900;53.640;9.942;2024-02-21T02:50:26;11.20;96.50
15099;DHT22;33900;53.640;9.942;2024-02-21T02:52:52;11.30;96.60
15099;DHT22;33900;53.640;9.942;2024-02-21T02:55:17;11.30;96.60
15099;DHT22;33900;53.640;9.942;2024-02-21T02:57:43;11.30;96.70
15099;DHT22;33900;53.640;9.942;2024-02-21T03:00:12;11.30;96.70
15099;DHT22;33900;53.640;9.942;2024-02-21T03:02:39;11.30;96.70
15099;DHT22;33900;53.640;9.942;2024-02-21T03:05:11;11.30;96.60
15099;DHT22;33900;53.640;9.942;2024-02-21T03:07:37;11.30;96.70
15099;DHT22;33900;53.640;9.942;2024-02-21T03:10:02;11.30;96.80
15099;DHT22;33900;53.640;9.942;2024-02-21T03:12:28;11.30;96.80
15099;DHT22;33900;53.640;9.942;2024-02-21T03:14:54;11.30;96.70
15099;DHT22;33900;53.640;9.942;2024-02-21T03:17:20;11.30;96.70
15099;DHT22;33900;53.640;9.942;2024-02-21T03:19:46;11.30;96.80
15099;DHT22;33900;53.640;9.942;2024-02-21T03:22:11;11.30;96.80
15099;DHT22;33900;53.640;9.942;2024-02-21T03:24:37;11.30;96.80
15099;DHT22;33900;53.640;9.942;2024-02-21T03:27:02;11.30;96.80
15099;DHT22;33900;53.640;9.942;2024-02-21T03:29:28;11.30;96.80
15099;DHT22;33900;53.640;9.942;2024-02-21T03:32:03;11.30;96.80
15099;DHT22;33900;53.640;9.942;2024-02-21T03:34:28;11.30;96.70
15099;DHT22;33900;53.640;9.942;2024-02-21T03:36:54;11.30;96.80
15099;DHT22;33900;53.640;9.942;2024-02-21T03:39:19;11.40;96.70
15099;DHT22;33900;53.640;9.942;2024-02-21T03:41:46;11.40;96.70
15099;DHT22;33900;53.640;9.942;2024-02-21T03:44:12;11.40;96.80
15099;DHT22;33900;53.640;9.942;2024-02-21T03:46:37;11.30;96.70
15099;DHT22;33900;53.640;9.942;2024-02-21T03:49:03;11.30;96.70
15099;DHT22;33900;53.640;9.942;2024-02-21T03:51:28;11.40;96.70
15099;DHT22;33900;53.640;9.942;2024-02-21T03:53:54;11.40;96.70
15099;DHT22;33900;53.640;9.942;2024-02-21T03:56:20;11.40;96.70
15099;DHT22;33900;53.640;9.942;2024-02-21T03:58:45;11.40;96.70
15099;DHT22;33900;53.640;9.942;2024-02-21T04:01:11;11.40;96.70
15099;DHT22;33900;53.640;9.942;2024-02-21T04:03:37;11.40;96.70
15099;DHT22;33900;53.640;9.942;2024-02-21T04:06:03;11.40;96.80
15099;DHT22;33900;53.640;9.942;2024-02-21T04:08:28;11.40;96.80
15099;DHT22;33900;53.640;9.942;2024-02-21T04:10:54;11.40;96.70
15099;DHT22;33900;53.640;9.942;2024-02-21T04:13:19;11.40;96.80
15099;DHT22;33900;53.640;9.942;2024-02-21T04:15:45;11.40;96.80
15099;DHT22;33900;53.640;9.942;2024-02-21T04:18:11;11.40;96.80
15099;DHT22;33900;53.640;9.942;2024-02-21T04:20:36;11.30;96.90
15099;DHT22;33900;53.640;9.942;2024-02-21T04:23:02;11.30;96.90
15099;DHT22;33900;53.640;9.942;2024-02-21T04:25:28;11.30;96.90
15099;DHT22;33900;53.640;9.942;2024-02-21T04:27:53;11.30;96.90
15099;DHT22;33900;53.640;9.942;2024-02-21T04:30:19;11.40;96.90
15099;DHT22;33900;53.640;9.942;2024-02-21T04:32:44;11.40;96.90
15099;DHT22;33900;53.640;9.942;2024-02-21T04:35:10;11.40;97.00
15099;DHT22;33900;53.640;9.942;2024-02-21T04:37:35;11.40;97.00
15099;DHT22;33900;53.640;9.942;2024-02-21T04:40:01;11.30;97.00
15099;DHT22;33900;53.640;9.942;2024-02-21T04:42:27;11.30;97.00
15099;DHT22;33900;53.640;9.942;2024-02-21T04:44:52;11.30;97.00
15099;DHT22;33900;53.640;9.942;2024-02-21T04:47:18;11.30;97.10
15099;DHT22;33900;53.640;9.942;2024-02-21T04:49:45;11.30;97.10
15099;DHT22;33900;53.640;9.942;2024-02-21T04:52:11;11.30;97.10
15099;DHT22;33900;53.640;9.942;2024-02-21T04:54:37;11.30;97.10
15099;DHT22;33900;53.640;9.942;2024-02-21T04:57:02;11.30;97.10
15099;DHT22;33900;53.640;9.942;2024-02-21T04:59:28;11.30;97.10
15099;DHT22;33900;53.640;9.942;2024-02-21T05:01:55;11.30;97.20
15099;DHT22;33900;53.640;9.942;2024-02-21T05:04:20;11.30;97.20
15099;DHT22;33900;53.640;9.942;2024-02-21T05:06:46;11.30;97.20
15099;DHT22;33900;53.640;9.942;2024-02-21T05:09:11;11.30;97.20
15099;DHT22;33900;53.640;9.942;2024-02-21T05:11:37;11.30;97.20
15099;DHT22;33900;53.640;9.942;2024-02-21T05:14:03;11.30;97.20
15099;DHT22;33900;53.640;9.942;2024-02-21T05:16:29;11.30;97.30
15099;DHT22;33900;53.640;9.942;2024-02-21T05:18:54;11.30;97.30
15099;DHT22;33900;53.640;9.942;2024-02-21T05:21:22;11.30;97.30
15099;DHT22;33900;53.640;9.942;2024-02-21T05:23:49;11.30;97.30
15099;DHT22;33900;53.640;9.942;2024-02-21T05:26:21;11.20;97.30
15099;DHT22;33900;53.640;9.942;2024-02-21T05:28:48;11.30;97.40
15099;DHT22;33900;53.640;9.942;2024-02-21T05:31:13;11.30;97.30
15099;DHT22;33900;53.640;9.942;2024-02-21T05:33:39;11.20;97.40
15099;DHT22;33900;53.640;9.942;2024-02-21T05:36:05;11.20;97.40
15099;DHT22;33900;53.640;9.942;2024-02-21T05:38:31;11.20;97.40
15099;DHT22;33900;53.640;9.942;2024-02-21T05:40:56;11.20;97.50
15099;DHT22;33900;53.640;9.942;2024-02-21T05:43:22;11.20;97.50
15099;DHT22;33900;53.640;9.942;2024-02-21T05:45:48;11.20;97.50
15099;DHT22;33900;53.640;9.942;2024-02-21T05:48:15;11.20;97.50
15099;DHT22;33900;53.640;9.942;2024-02-21T05:50:41;11.20;97.50
15099;DHT22;33900;53.640;9.942;2024-02-21T05:53:06;11.20;97.50
15099;DHT22;33900;53.640;9.942;2024-02-21T05:55:32;11.20;97.60
15099;DHT22;33900;53.640;9.942;2024-02-21T05:57:57;11.20;97.60
15099;DHT22;33900;53.640;9.942;2024-02-21T06:00:23;11.20;97.60
15099;DHT22;33900;53.640;9.942;2024-02-21T06:02:48;11.20;97.60
15099;DHT22;33900;53.640;9.942;2024-02-21T06:05:15;11.20;97.60
15099;DHT22;33900;53.640;9.942;2024-02-21T06:07:40;11.20;97.60
15099;DHT22;33900;53.640;9.942;2024-02-21T06:10:06;11.30;97.70
15099;DHT22;33900;53.640;9.942;2024-02-21T06:12:32;11.20;97.70
15099;DHT22;33900;53.640;9.942;2024-02-21T06:14:58;11.20;97.70
15099;DHT22;33900;53.640;9.942;2024-02-21T06:17:23;11.20;97.70
15099;DHT22;33900;53.640;9.942;2024-02-21T06:19:49;11.20;98.10
15099;DHT22;33900;53.640;9.942;2024-02-21T06:22:14;11.20;97.70
15099;DHT22;33900;53.640;9.942;2024-02-21T06:24:40;11.20;97.70
15099;DHT22;33900;53.640;9.942;2024-02-21T06:27:05;11.20;97.70
15099;DHT22;33900;53.640;9.942;2024-02-21T06:29:34;11.20;97.70
15099;DHT22;33900;53.640;9.942;2024-02-21T06:32:00;11.20;97.70
15099;DHT22;33900;53.640;9.942;2024-02-21T06:34:26;11.20;97.70
15099;DHT22;33900;53.640;9.942;2024-02-21T06:36:51;11.20;97.70
15099;DHT22;33900;53.640;9.942;2024-02-21T06:39:17;11.20;97.70
15099;DHT22;33900;53.640;9.942;2024-02-21T06:41:42;11.20;97.80
15099;DHT22;33900;53.640;9.942;2024-02-21T06:44:08;11.20;97.70
15099;DHT22;33900;53.640;9.942;2024-02-21T06:46:34;11.20;97.70
15099;DHT22;33900;53.640;9.942;2024-02-21T06:49:00;11.20;97.70
15099;DHT22;33900;53.640;9.942;2024-02-21T06:51:26;11.20;97.70
15099;DHT22;33900;53.640;9.942;2024-02-21T06:53:52;11.30;97.70
15099;DHT22;33900;53.640;9.942;2024-02-21T06:56:18;11.20;97.70
15099;DHT22;33900;53.640;9.942;2024-02-21T06:58:43;11.30;97.70
15099;DHT22;33900;53.640;9.942;2024-02-21T07:01:09;11.30;97.80
15099;DHT22;33900;53.640;9.942;2024-02-21T07:03:35;11.30;97.70
15099;DHT22;33900;53.640;9.942;2024-02-21T07:06:01;11.30;97.70
15099;DHT22;33900;53.640;9.942;2024-02-21T07:08:26;11.30;97.70
15099;DHT22;33900;53.640;9.942;2024-02-21T07:10:52;11.30;97.70
15099;DHT22;33900;53.640;9.942;2024-02-21T07:13:18;11.30;97.80
15099;DHT22;33900;53.640;9.942;2024-02-21T07:15:43;11.30;97.70
15099;DHT22;33900;53.640;9.942;2024-02-21T07:18:09;11.30;97.70
15099;DHT22;33900;53.640;9.942;2024-02-21T07:20:34;11.30;97.70
15099;DHT22;33900;53.640;9.942;2024-02-21T07:23:02;11.30;97.70
15099;DHT22;33900;53.640;9.942;2024-02-21T07:25:28;11.30;97.70
15099;DHT22;33900;53.640;9.942;2024-02-21T07:27:53;11.30;97.70
15099;DHT22;33900;53.640;9.942;2024-02-21T07:30:19;11.30;97.80
15099;DHT22;33900;53.640;9.942;2024-02-21T07:32:44;11.30;97.80
15099;DHT22;33900;53.640;9.942;2024-02-21T07:35:10;11.30;97.80
15099;DHT22;33900;53.640;9.942;2024-02-21T07:37:37;11.30;97.90
15099;DHT22;33900;53.640;9.942;2024-02-21T07:40:05;11.30;97.90
15099;DHT22;33900;53.640;9.942;2024-02-21T07:42:32;11.30;97.90
15099;DHT22;33900;53.640;9.942;2024-02-21T07:44:58;11.30;97.90
15099;DHT22;33900;53.640;9.942;2024-02-21T07:47:23;11.20;97.90
15099;DHT22;33900;53.640;9.942;2024-02-21T07:49:49;11.20;97.90
15099;DHT22;33900;53.640;9.942;2024-02-21T07:52:15;11.30;97.90
15099;DHT22;33900;53.640;9.942;2024-02-21T07:54:41;11.20;97.90
15099;DHT22;33900;53.640;9.942;2024-02-21T07:57:07;11.20;97.90
15099;DHT22;33900;53.640;9.942;2024-02-21T07:59:32;11.30;98.00
15099;DHT22;33900;53.640;9.942;2024-02-21T08:01:58;11.20;97.90
15099;DHT22;33900;53.640;9.942;2024-02-21T08:04:23;11.20;97.90
15099;DHT22;33900;53.640;9.942;2024-02-21T08:06:52;11.30;97.90
15099;DHT22;33900;53.640;9.942;2024-02-21T08:09:18;11.30;97.90
15099;DHT22;33900;53.640;9.942;2024-02-21T08:11:44;11.30;97.90
15099;DHT22;33900;53.640;9.942;2024-02-21T08:14:10;11.30;97.90
15099;DHT22;33900;53.640;9.942;2024-02-21T08:16:35;11.40;97.90
15099;DHT22;33900;53.640;9.942;2024-02-21T08:19:01;11.40;97.90
15099;DHT22;33900;53.640;9.942;2024-02-21T08:21:29;11.40;97.90
15099;DHT22;33900;53.640;9.942;2024-02-21T08:23:55;11.40;97.90
15099;DHT22;33900;53.640;9.942;2024-02-21T08:26:20;11.40;97.90
15099;DHT22;33900;53.640;9.942;2024-02-21T08:28:46;11.40;97.80
15099;DHT22;33900;53.640;9.942;2024-02-21T08:31:17;11.40;97.80
15099;DHT22;33900;53.640;9.942;2024-02-21T08:33:43;11.40;97.80
15099;DHT22;33900;53.640;9.942;2024-02-21T08:36:09;11.40;97.80
15099;DHT22;33900;53.640;9.942;2024-02-21T08:38:34;11.50;97.90
15099;DHT22;33900;53.640;9.942;2024-02-21T08:41:00;11.50;97.90
15099;DHT22;33900;53.640;9.942;2024-02-21T08:43:26;11.40;97.80
15099;DHT22;33900;53.640;9.942;2024-02-21T08:45:51;11.50;97.80
15099;DHT22;33900;53.640;9.942;2024-02-21T08:48:16;11.50;97.80
15099;DHT22;33900;53.640;9.942;2024-02-21T08:50:42;11.50;97.80
15099;DHT22;33900;53.640;9.942;2024-02-21T08:53:08;11.50;97.80
15099;DHT22;33900;53.640;9.942;2024-02-21T08:55:33;11.50;97.80
15099;DHT22;33900;53.640;9.942;2024-02-21T08:57:59;11.50;97.80
15099;DHT22;33900;53.640;9.942;2024-02-21T09:00:25;11.50;97.80
15099;DHT22;33900;53.640;9.942;2024-02-21T09:02:52;11.50;97.80
15099;DHT22;33900;53.640;9.942;2024-02-21T09:05:18;11.50;97.80
15099;DHT22;33900;53.640;9.942;2024-02-21T09:07:43;11.50;97.70
15099;DHT22;33900;53.640;9.942;2024-02-21T09:10:09;11.50;97.70
15099;DHT22;33900;53.640;9.942;2024-02-21T09:12:34;11.60;97.70
15099;DHT22;33900;53.640;9.942;2024-02-21T09:15:00;11.60;97.70
15099;DHT22;33900;53.640;9.942;2024-02-21T09:17:26;11.60;97.70
15099;DHT22;33900;53.640;9.942;2024-02-21T09:19:54;11.60;97.70
15099;DHT22;33900;53.640;9.942;2024-02-21T09:22:21;11.50;97.70
15099;DHT22;33900;53.640;9.942;2024-02-21T09:24:46;11.50;97.70
15099;DHT22;33900;53.640;9.942;2024-02-21T09:27:12;11.60;97.70
15099;DHT22;33900;53.640;9.942;2024-02-21T09:29:38;11.60;97.70
15099;DHT22;33900;53.640;9.942;2024-02-21T09:32:05;11.60;97.70
15099;DHT22;33900;53.640;9.942;2024-02-21T09:34:30;11.60;97.70
15099;DHT22;33900;53.640;9.942;2024-02-21T09:36:56;11.60;97.70
15099;DHT22;33900;53.640;9.942;2024-02-21T09:39:21;11.60;97.70
15099;DHT22;33900;53.640;9.942;2024-02-21T09:41:50;11.60;97.70
15099;DHT22;33900;53.640;9.942;2024-02-21T09:44:18;11.50;97.70
15099;DHT22;33900;53.640;9.942;2024-02-21T09:51:38;11.60;97.60
15099;DHT22;33900;53.640;9.942;2024-02-21T09:54:07;11.50;97.60
15099;DHT22;33900;53.640;9.942;2024-02-21T09:56:32;11.60;97.60
15099;DHT22;33900;53.640;9.942;2024-02-21T09:58:58;11.50;97.60
15099;DHT22;33900;53.640;9.942;2024-02-21T10:01:23;11.50;97.60
15099;DHT22;33900;53.640;9.942;2024-02-21T10:03:49;11.50;97.60
15099;DHT22;33900;53.640;9.942;2024-02-21T10:06:15;11.60;97.60
15099;DHT22;33900;53.640;9.942;2024-02-21T10:08:40;11.50;97.60
15099;DHT22;33900;53.640;9.942;2024-02-21T10:11:06;11.50;97.90
15099;DHT22;33900;53.640;9.942;2024-02-21T10:13:34;11.50;97.60
15099;DHT22;33900;53.640;9.942;2024-02-21T10:16:06;11.50;97.60
15099;DHT22;33900;53.640;9.942;2024-02-21T10:18:33;11.50;97.60
15099;DHT22;33900;53.640;9.942;2024-02-21T10:21:02;11.50;97.60
15099;DHT22;33900;53.640;9.942;2024-02-21T10:23:29;11.60;97.70
15099;DHT22;33900;53.640;9.942;2024-02-21T10:25:54;11.60;97.60
15099;DHT22;33900;53.640;9.942;2024-02-21T10:28:29;11.60;97.60
15099;DHT22;33900;53.640;9.942;2024-02-21T10:30:55;11.50;97.60
15099;DHT22;33900;53.640;9.942;2024-02-21T10:33:20;11.60;97.70
15099;DHT22;33900;53.640;9.942;2024-02-21T10:35:46;11.60;97.60
15099;DHT22;33900;53.640;9.942;2024-02-21T10:38:13;11.60;97.60
15099;DHT22;33900;53.640;9.942;2024-02-21T10:40:38;11.60;97.70
15099;DHT22;33900;53.640;9.942;2024-02-21T10:43:04;11.60;97.70
15099;DHT22;33900;53.640;9.942;2024-02-21T10:45:31;11.60;97.70
15099;DHT22;33900;53.640;9.942;2024-02-21T10:48:20;11.60;97.70
15099;DHT22;33900;53.640;9.942;2024-02-21T10:50:56;11.60;97.70
15099;DHT22;33900;53.640;9.942;2024-02-21T10:56:02;11.60;97.70
15099;DHT22;33900;53.640;9.942;2024-02-21T10:58:31;11.60;97.80
15099;DHT22;33900;53.640;9.942;2024-02-21T11:00:57;11.60;97.80
15099;DHT22;33900;53.640;9.942;2024-02-21T11:03:23;11.60;97.80
15099;DHT22;33900;53.640;9.942;2024-02-21T11:05:49;11.60;97.80
15099;DHT22;33900;53.640;9.942;2024-02-21T11:08:14;11.60;97.80
15099;DHT22;33900;53.640;9.942;2024-02-21T11:10:45;11.60;97.80
15099;DHT22;33900;53.640;9.942;2024-02-21T11:13:11;11.70;97.80
15099;DHT22;33900;53.640;9.942;2024-02-21T11:15:36;11.70;97.80
15099;DHT22;33900;53.640;9.942;2024-02-21T11:18:02;11.70;97.80
15099;DHT22;33900;53.640;9.942;2024-02-21T11:20:34;11.70;97.90
15099;DHT22;33900;53.640;9.942;2024-02-21T11:23:00;11.70;97.80
15099;DHT22;33900;53.640;9.942;2024-02-21T11:25:27;11.70;97.90
15099;DHT22;33900;53.640;9.942;2024-02-21T11:28:02;11.70;97.80
15099;DHT22;33900;53.640;9.942;2024-02-21T11:30:31;11.70;97.80
15099;DHT22;33900;53.640;9.942;2024-02-21T11:33:06;11.70;97.80
15099;DHT22;33900;53.640;9.942;2024-02-21T11:35:34;11.70;97.80
15099;DHT22;33900;53.640;9.942;2024-02-21T11:38:13;11.70;97.80
15099;DHT22;33900;53.640;9.942;2024-02-21T11:40:43;11.70;97.80
15099;DHT22;33900;53.640;9.942;2024-02-21T11:43:08;11.70;97.80
15099;DHT22;33900;53.640;9.942;2024-02-21T11:45:34;11.70;97.80
15099;DHT22;33900;53.640;9.942;2024-02-21T11:47:59;11.70;97.80
15099;DHT22;33900;53.640;9.942;2024-02-21T11:50:31;11.70;97.80
15099;DHT22;33900;53.640;9.942;2024-02-21T11:52:57;11.70;97.70
15099;DHT22;33900;53.640;9.942;2024-02-21T11:55:23;11.70;97.80
15099;DHT22;33900;53.640;9.942;2024-02-21T11:57:48;11.60;97.70
15099;DHT22;33900;53.640;9.942;2024-02-21T12:00:14;11.60;97.70
15099;DHT22;33900;53.640;9.942;2024-02-21T12:02:45;11.60;97.70
15099;DHT22;33900;53.640;9.942;2024-02-21T12:05:11;11.60;97.70
15099;DHT22;33900;53.640;9.942;2024-02-21T12:07:37;11.60;97.70
15099;DHT22;33900;53.640;9.942;2024-02-21T12:10:09;11.60;97.70
15099;DHT22;33900;53.640;9.942;2024-02-21T12:12:35;11.60;97.70
15099;DHT22;33900;53.640;9.942;2024-02-21T12:15:03;11.60;97.70
15099;DHT22;33900;53.640;9.942;2024-02-21T12:17:39;11.60;97.60
15099;DHT22;33900;53.640;9.942;2024-02-21T12:20:05;11.60;97.60
15099;DHT22;33900;53.640;9.942;2024-02-21T12:22:31;11.60;97.60
15099;DHT22;33900;53.640;9.942;2024-02-21T12:25:00;11.60;97.60
15099;DHT22;33900;53.640;9.942;2024-02-21T12:27:28;11.70;97.60
15099;DHT22;33900;53.640;9.942;2024-02-21T12:29:54;11.60;97.50
15099;DHT22;33900;53.640;9.942;2024-02-21T12:32:19;11.60;97.60
15099;DHT22;33900;53.640;9.942;2024-02-21T12:34:45;11.60;97.60
15099;DHT22;33900;53.640;9.942;2024-02-21T12:37:10;11.60;97.50
15099;DHT22;33900;53.640;9.942;2024-02-21T12:39:38;11.60;97.50
15099;DHT22;33900;53.640;9.942;2024-02-21T12:42:04;11.50;97.40
15099;DHT22;33900;53.640;9.942;2024-02-21T12:44:29;11.50;97.40
15099;DHT22;33900;53.640;9.942;2024-02-21T12:46:55;11.50;97.40
15099;DHT22;33900;53.640;9.942;2024-02-21T12:49:20;11.50;97.40
15099;DHT22;33900;53.640;9.942;2024-02-21T12:51:46;11.50;97.40
15099;DHT22;33900;53.640;9.942;2024-02-21T12:54:12;11.50;97.40
15099;DHT22;33900;53.640;9.942;2024-02-21T12:56:37;11.50;97.50
15099;DHT22;33900;53.640;9.942;2024-02-21T12:59:03;11.50;97.50
15099;DHT22;33900;53.640;9.942;2024-02-21T13:01:29;11.50;97.50
15099;DHT22;33900;53.640;9.942;2024-02-21T13:03:54;11.50;97.50
15099;DHT22;33900;53.640;9.942;2024-02-21T13:06:21;11.50;97.50
15099;DHT22;33900;53.640;9.942;2024-02-21T13:08:46;11.50;97.50
15099;DHT22;33900;53.640;9.942;2024-02-21T13:11:12;11.50;97.50
15099;DHT22;33900;53.640;9.942;2024-02-21T13:13:38;11.50;97.40
15099;DHT22;33900;53.640;9.942;2024-02-21T13:16:03;11.50;97.40
15099;DHT22;33900;53.640;9.942;2024-02-21T13:18:29;11.50;97.50
15099;DHT22;33900;53.640;9.942;2024-02-21T13:20:55;11.50;97.50
15099;DHT22;33900;53.640;9.942;2024-02-21T13:23:20;11.50;97.40
15099;DHT22;33900;53.640;9.942;2024-02-21T13:25:49;11.50;97.40
15099;DHT22;33900;53.640;9.942;2024-02-21T13:28:15;11.50;97.40
15099;DHT22;33900;53.640;9.942;2024-02-21T13:30:42;11.50;97.50
15099;DHT22;33900;53.640;9.942;2024-02-21T13:33:07;11.60;97.50
15099;DHT22;33900;53.640;9.942;2024-02-21T13:35:34;11.60;97.40
15099;DHT22;33900;53.640;9.942;2024-02-21T13:38:03;11.60;97.40
15099;DHT22;33900;53.640;9.942;2024-02-21T13:40:28;11.60;97.40
15099;DHT22;33900;53.640;9.942;2024-02-21T13:42:54;11.60;97.40
15099;DHT22;33900;53.640;9.942;2024-02-21T13:45:20;11.60;97.40
15099;DHT22;33900;53.640;9.942;2024-02-21T13:47:45;11.60;97.40
15099;DHT22;33900;53.640;9.942;2024-02-21T13:50:11;11.60;97.40
15099;DHT22;33900;53.640;9.942;2024-02-21T13:52:37;11.60;97.30
15099;DHT22;33900;53.640;9.942;2024-02-21T13:55:02;11.60;97.20
15099;DHT22;33900;53.640;9.942;2024-02-21T13:57:28;11.60;97.30
15099;DHT22;33900;53.640;9.942;2024-02-21T13:59:54;11.60;97.30
15099;DHT22;33900;53.640;9.942;2024-02-21T14:02:19;11.60;97.30
15099;DHT22;33900;53.640;9.942;2024-02-21T14:04:46;11.60;97.30
15099;DHT22;33900;53.640;9.942;2024-02-21T14:07:12;11.70;97.30
15099;DHT22;33900;53.640;9.942;2024-02-21T14:09:37;11.70;97.30
15099;DHT22;33900;53.640;9.942;2024-02-21T14:12:05;11.70;97.20
15099;DHT22;33900;53.640;9.942;2024-02-21T14:14:34;11.70;97.20
15099;DHT22;33900;53.640;9.942;2024-02-21T14:17:00;11.70;97.20
15099;DHT22;33900;53.640;9.942;2024-02-21T14:19:25;11.70;97.20
15099;DHT22;33900;53.640;9.942;2024-02-21T14:21:51;11.80;97.20
15099;DHT22;33900;53.640;9.942;2024-02-21T14:24:16;11.80;97.60
15099;DHT22;33900;53.640;9.942;2024-02-21T14:26:42;11.80;97.20
15099;DHT22;33900;53.640;9.942;2024-02-21T14:29:07;11.80;97.20
15099;DHT22;33900;53.640;9.942;2024-02-21T14:31:33;11.80;97.10
15099;DHT22;33900;53.640;9.942;2024-02-21T14:33:58;11.80;97.10
15099;DHT22;33900;53.640;9.942;2024-02-21T14:36:26;11.80;97.10
15099;DHT22;33900;53.640;9.942;2024-02-21T14:38:51;11.80;97.10
15099;DHT22;33900;53.640;9.942;2024-02-21T14:41:17;11.90;97.10
15099;DHT22;33900;53.640;9.942;2024-02-21T14:43:43;11.90;97.10
15099;DHT22;33900;53.640;9.942;2024-02-21T14:46:09;11.90;97.10
15099;DHT22;33900;53.640;9.942;2024-02-21T14:48:34;11.90;97.10
15099;DHT22;33900;53.640;9.942;2024-02-21T14:51:01;11.90;97.10
15099;DHT22;33900;53.640;9.942;2024-02-21T14:53:27;11.90;97.00
15099;DHT22;33900;53.640;9.942;2024-02-21T14:55:52;11.90;97.00
15099;DHT22;33900;53.640;9.942;2024-02-21T14:58:18;11.90;96.90
15099;DHT22;33900;53.640;9.942;2024-02-21T15:00:45;12.00;96.90
15099;DHT22;33900;53.640;9.942;2024-02-21T15:03:12;11.90;96.90
15099;DHT22;33900;53.640;9.942;2024-02-21T15:05:41;11.90;96.80
15099;DHT22;33900;53.640;9.942;2024-02-21T15:08:06;12.00;97.10
15099;DHT22;33900;53.640;9.942;2024-02-21T15:10:33;11.90;96.70
15099;DHT22;33900;53.640;9.942;2024-02-21T15:12:59;11.90;96.70
15099;DHT22;33900;53.640;9.942;2024-02-21T15:15:24;11.90;96.70
15099;DHT22;33900;53.640;9.942;2024-02-21T15:17:50;11.90;96.70
15099;DHT22;33900;53.640;9.942;2024-02-21T15:20:15;11.90;96.70
15099;DHT22;33900;53.640;9.942;2024-02-21T15:22:41;11.90;96.70
15099;DHT22;33900;53.640;9.942;2024-02-21T15:25:07;11.90;96.60
15099;DHT22;33900;53.640;9.942;2024-02-21T15:27:38;11.90;96.70
15099;DHT22;33900;53.640;9.942;2024-02-21T15:30:04;11.90;96.60